Palito Blanco, Texas
Current Conditions -  °F | °C
As of 6:53 PM on Monday 22 Dec 2014 (Local Time) from KALI Reporting Station
Haze Haze  
Wind Chill: 64°   Ceiling: Unl
Heat Index: 64°   Visibility: 5mi
Dew Point: 57°   Wind: 6mph
Humidity: 78%   Direction: 120°ESE
Pressure: 29.62"   Gusts: NA
Location:  27.6821°N, 98.1034°W
Report Text: KALI 230053Z AUTO 12005KT 5SM HZ CLR 18/14 A2962 RMK AO2 SLP029 T01780139
Loading
Personal Weather Stations






























Interactive Weather Map New forecast layout! Learn more

10-Day Weather Forecast

Advertisements
Track Severe Weather on mobile